Time;durP1;ratioP1;P1;durP2;ratioP2;P2;SDS_P1;SDS_P2;PMS_P1;PMS_P2;Temp;Humidity;BMP_temperature;BMP_pressure;BME280_temperature;BME280_humidity;BME280_pressure;Samples;Min_cycle;Max_cycle;Signal;HPM_P1;HPM_P2
2023/06/08 00:01:29;;;;;;;;;22.00;17.67;;;;;18.24;73.82;101502.75;5078408;27;45600;-66
2023/06/08 00:03:55;;;;;;;;;30.33;23.00;;;;;18.16;71.65;101496.91;5078560;27;45370;-66
2023/06/08 00:06:25;;;;;;;;;20.67;19.33;;;;;18.17;73.12;101504.84;5078194;27;46289;-68
2023/06/08 00:08:51;;;;;;;;;24.33;21.67;;;;;18.17;72.18;101490.66;5077767;27;45220;-66
2023/06/08 00:11:16;;;;;;;;;17.67;17.00;;;;;18.12;72.21;101489.97;5078051;27;45259;-66
2023/06/08 00:13:41;;;;;;;;;20.33;20.33;;;;;18.12;73.66;101492.63;5078531;27;45456;-66
2023/06/08 00:16:07;;;;;;;;;28.33;21.00;;;;;18.06;72.25;101485.75;5078150;27;45385;-66
2023/06/08 00:18:32;;;;;;;;;31.00;21.00;;;;;18.08;73.74;101490.09;5078007;27;45387;-66
2023/06/08 00:20:58;;;;;;;;;25.67;17.00;;;;;18.01;74.16;101493.97;5078124;27;45221;-66
2023/06/08 00:23:24;;;;;;;;;31.00;24.67;;;;;17.99;73.69;101481.63;5078230;27;45603;-66
2023/06/08 00:25:49;;;;;;;;;20.00;20.00;;;;;18.02;73.70;101487.72;5077825;27;46152;-66
2023/06/08 00:28:15;;;;;;;;;25.33;20.33;;;;;17.99;74.81;101486.97;5076997;27;45291;-68
2023/06/08 00:30:40;;;;;;;;;24.33;18.33;;;;;17.94;73.87;101473.81;5076484;27;45400;-68
2023/06/08 00:33:06;;;;;;;;;22.33;19.33;;;;;18.06;75.28;101488.44;5076742;27;45329;-68
2023/06/08 00:35:31;;;;;;;;;24.67;20.33;;;;;18.03;74.22;101489.41;5076208;27;45394;-68
2023/06/08 00:37:56;;;;;;;;;21.67;19.00;;;;;17.69;74.07;101431.34;5076385;27;45236;-68
2023/06/08 00:40:22;;;;;;;;;24.67;20.33;;;;;17.93;74.91;101464.09;5076054;27;45435;-67
2023/06/08 00:42:47;;;;;;;;;22.67;22.33;;;;;17.97;74.05;101472.84;5076616;27;45220;-68
2023/06/08 00:45:12;;;;;;;;;25.00;20.33;;;;;17.98;75.11;101474.56;5076146;27;46216;-68
2023/06/08 00:47:38;;;;;;;;;25.33;21.00;;;;;17.97;74.21;101470.19;5076335;27;45220;-68
2023/06/08 00:50:07;;;;;;;;;23.33;20.67;;;;;17.87;74.27;101459.00;5076025;28;45425;-68
2023/06/08 00:52:32;;;;;;;;;24.33;20.67;;;;;17.91;74.93;101460.66;5092284;27;45547;-68
2023/06/08 00:55:00;;;;;;;;;24.33;20.33;;;;;17.89;75.01;101457.13;5076147;28;45532;-68
2023/06/08 00:57:28;;;;;;;;;25.00;22.33;;;;;17.92;75.75;101463.25;5075695;27;45359;-68
2023/06/08 00:59:55;;;;;;;;;24.67;21.67;;;;;17.91;74.75;101456.16;5076032;27;45287;-68
2023/06/08 01:02:23;;;;;;;;;23.67;20.67;;;;;17.82;75.44;101450.31;5076375;27;45861;-68
2023/06/08 01:04:50;;;;;;;;;31.67;23.67;;;;;17.80;75.47;101453.03;5075715;27;46599;-68
2023/06/08 01:07:48;;;;;;;;;23.00;18.67;;;;;17.82;75.38;101459.19;5075732;27;45339;-69
2023/06/08 01:10:21;;;;;;;;;22.67;19.67;;;;;17.80;74.13;101453.03;5079104;27;45212;-68
2023/06/08 01:13:12;;;;;;;;;20.67;19.33;;;;;17.74;75.67;101454.16;5080348;27;45590;-68
2023/06/08 01:15:42;;;;;;;;;31.67;25.67;;;;;17.78;76.44;101454.06;5079310;28;45425;-68
2023/06/08 01:18:09;;;;;;;;;23.67;22.33;;;;;17.73;76.00;101451.56;5079907;28;45182;-68
2023/06/08 01:21:11;;;;;;;;;24.67;21.33;;;;;17.79;75.72;101450.44;5079967;27;45481;-68
2023/06/08 01:24:12;;;;;;;;;22.67;21.67;;;;;17.76;75.60;101443.44;5080299;27;45267;-68
2023/06/08 01:26:39;;;;;;;;;35.33;27.33;;;;;17.73;76.62;101443.56;5079326;27;46137;-68
2023/06/08 01:29:05;;;;;;;;;24.67;18.67;;;;;17.76;76.01;101443.44;5039977;27;1146212;-68
2023/06/08 01:31:31;;;;;;;;;29.67;25.67;;;;;17.70;75.44;101436.59;5080911;28;45320;-68
2023/06/08 01:33:57;;;;;;;;;27.00;23.00;;;;;17.71;74.80;101442.78;5081007;27;45223;-68
2023/06/08 01:36:33;;;;;;;;;27.33;21.33;;;;;17.67;75.11;101442.03;5080613;27;45493;-68
2023/06/08 01:39:35;;;;;;;;;24.67;22.33;;;;;17.65;75.62;101440.38;5080828;27;45202;-68
2023/06/08 01:42:03;;;;;;;;;29.00;26.67;;;;;17.60;75.03;101431.72;5080454;27;46755;-68
2023/06/08 01:44:30;;;;;;;;;26.67;23.67;;;;;17.60;76.40;101435.25;5080689;27;45224;-68
2023/06/08 01:46:59;;;;;;;;;26.67;24.00;;;;;17.58;76.42;101435.28;5080336;27;45987;-68
2023/06/08 01:49:28;;;;;;;;;24.67;19.67;;;;;17.58;77.31;101435.28;5080416;27;45302;-68
2023/06/08 01:51:54;;;;;;;;;23.33;21.00;;;;;17.57;77.07;101435.34;5080250;27;45247;-68
2023/06/08 01:54:23;;;;;;;;;29.33;24.33;;;;;17.54;76.55;101432.81;5080280;27;45453;-68
2023/06/08 01:56:48;;;;;;;;;29.67;25.00;;;;;17.52;76.38;101432.03;5080245;27;45764;-68
2023/06/08 01:59:14;;;;;;;;;29.00;23.33;;;;;17.40;75.58;101412.09;5080217;27;45274;-68
2023/06/08 02:01:39;;;;;;;;;30.67;25.67;;;;;17.40;77.18;101420.09;5080107;27;45308;-68
2023/06/08 02:04:05;;;;;;;;;30.67;25.33;;;;;17.38;75.69;101416.59;5080619;27;45365;-68
2023/06/08 02:06:30;;;;;;;;;30.33;24.00;;;;;17.41;77.07;101421.81;5079959;27;47002;-68
2023/06/08 02:08:56;;;;;;;;;29.33;23.33;;;;;17.37;76.50;101413.09;5080263;27;45321;-68
2023/06/08 02:11:22;;;;;;;;;24.67;23.67;;;;;17.34;76.28;101413.22;5080193;27;45561;-68
2023/06/08 02:13:48;;;;;;;;;32.00;25.00;;;;;17.43;76.02;101427.06;5080266;27;45201;-69
2023/06/08 02:16:13;;;;;;;;;27.33;22.33;;;;;17.34;77.14;101415.00;5079815;28;45343;-68
2023/06/08 02:18:42;;;;;;;;;30.33;24.67;;;;;17.27;76.61;101405.53;5080088;27;45216;-68
2023/06/08 02:21:08;;;;;;;;;28.67;26.00;;;;;17.32;76.62;101420.38;5079781;27;45459;-68
2023/06/08 02:23:34;;;;;;;;;30.33;23.33;;;;;17.31;77.43;101410.69;5079878;27;45442;-68
2023/06/08 02:26:00;;;;;;;;;38.33;29.33;;;;;17.25;76.61;101418.03;5079597;27;45830;-69
2023/06/08 02:28:25;;;;;;;;;31.00;25.67;;;;;17.25;77.28;101415.38;5079686;27;45431;-68
2023/06/08 02:30:50;;;;;;;;;28.00;24.67;;;;;17.02;77.96;101380.78;5079970;27;45249;-68
2023/06/08 02:33:16;;;;;;;;;22.33;22.33;;;;;17.20;76.48;101421.75;5080208;27;45316;-69
2023/06/08 02:35:42;;;;;;;;;29.00;25.00;;;;;16.97;77.21;101390.72;5079767;27;45585;-69
2023/06/08 02:38:07;;;;;;;;;31.67;27.33;;;;;17.11;76.47;101400.81;5079423;27;45477;-68
2023/06/08 02:40:33;;;;;;;;;32.00;26.67;;;;;17.10;78.02;101412.38;5079853;27;45340;-68
2023/06/08 02:42:58;;;;;;;;;24.33;20.67;;;;;17.15;77.37;101422.84;5079583;27;45388;-68
2023/06/08 02:45:25;;;;;;;;;31.00;29.33;;;;;17.11;78.26;101422.13;5079612;27;46080;-68
2023/06/08 02:47:50;;;;;;;;;23.33;20.00;;;;;17.07;78.00;101411.66;5079442;27;45226;-68
2023/06/08 02:50:15;;;;;;;;;24.67;22.00;;;;;16.87;77.93;101389.31;5079601;27;45544;-68
2023/06/08 02:52:41;;;;;;;;;34.33;23.00;;;;;17.10;77.89;101419.50;5079925;27;45188;-68
2023/06/08 02:55:07;;;;;;;;;25.00;19.33;;;;;17.00;77.73;101414.53;5079255;27;46663;-68
2023/06/08 02:57:33;;;;;;;;;26.33;24.33;;;;;16.99;76.87;101420.81;5079411;27;45551;-68
2023/06/08 02:59:58;;;;;;;;;27.33;25.67;;;;;17.03;78.96;101427.75;5078504;28;45340;-68
2023/06/08 03:02:24;;;;;;;;;24.67;22.33;;;;;16.95;78.94;101410.31;5079393;27;45364;-68
2023/06/08 03:04:52;;;;;;;;;26.00;22.33;;;;;17.00;77.69;101416.34;5079149;27;46641;-68
2023/06/08 03:07:18;;;;;;;;;24.67;24.67;;;;;16.94;77.87;101409.47;5079162;27;45426;-68
2023/06/08 03:09:43;;;;;;;;;28.00;23.33;;;;;16.97;78.11;101409.34;5079550;27;45283;-68
2023/06/08 03:12:12;;;;;;;;;30.33;25.00;;;;;16.97;78.64;101412.00;5079074;27;45204;-68
2023/06/08 03:14:40;;;;;;;;;26.33;24.00;;;;;17.01;79.24;101412.75;5078879;27;45578;-68
2023/06/08 03:17:07;;;;;;;;;25.67;22.00;;;;;16.98;78.25;101412.88;5079061;27;45381;-68
2023/06/08 03:19:32;;;;;;;;;29.33;26.33;;;;;16.98;78.18;101416.41;5078986;27;45314;-68
2023/06/08 03:22:04;;;;;;;;;29.00;25.67;;;;;17.01;77.98;101421.59;5079180;27;45224;-68
2023/06/08 03:24:31;;;;;;;;;34.33;28.67;;;;;16.99;77.75;101411.94;5078911;27;46127;-68
2023/06/08 03:27:00;;;;;;;;;32.67;23.33;;;;;16.92;78.66;101405.13;5078279;27;45749;-68
2023/06/08 03:29:26;;;;;;;;;20.00;20.00;;;;;16.94;78.36;101409.47;5079103;27;45452;-68
2023/06/08 03:31:52;;;;;;;;;28.33;23.33;;;;;16.91;78.23;101409.59;5078160;28;45237;-68
2023/06/08 03:34:18;;;;;;;;;32.67;25.33;;;;;16.94;79.25;101420.09;5078469;27;46636;-68
2023/06/08 03:36:44;;;;;;;;;28.00;23.33;;;;;16.90;78.30;101409.66;5078783;28;45299;-68
2023/06/08 03:39:10;;;;;;;;;29.33;22.33;;;;;16.85;77.82;101410.66;5078803;27;45287;-68
2023/06/08 03:41:35;;;;;;;;;29.67;26.00;;;;;16.90;79.00;101412.31;5078378;27;45307;-68
2023/06/08 03:44:01;;;;;;;;;25.33;22.00;;;;;16.94;78.66;101422.75;5078392;27;45511;-68
2023/06/08 03:46:27;;;;;;;;;27.00;25.67;;;;;16.93;78.31;101415.69;5078548;27;45346;-68
2023/06/08 03:48:52;;;;;;;;;27.33;26.67;;;;;16.92;78.47;101421.09;5078923;27;45217;-68
2023/06/08 03:51:23;;;;;;;;;36.33;27.67;;;;;16.92;76.79;101421.09;5078775;27;45434;-68
2023/06/08 03:53:51;;;;;;;;;28.33;24.67;;;;;16.71;77.82;101397.91;5078451;27;45700;-68
2023/06/08 03:56:17;;;;;;;;;28.33;24.00;;;;;16.85;77.77;101420.44;5078272;27;45464;-68
2023/06/08 03:58:42;;;;;;;;;27.67;25.33;;;;;16.83;78.53;101425.81;5078087;27;45228;-68
2023/06/08 04:01:11;;;;;;;;;30.67;22.67;;;;;16.86;78.01;101424.81;5078569;27;45561;-68
2023/06/08 04:03:38;;;;;;;;;27.33;24.67;;;;;16.86;77.36;101430.13;5078518;27;45558;-68
2023/06/08 04:06:05;;;;;;;;;31.67;24.67;;;;;16.81;78.08;101418.81;5078060;27;45420;-69
2023/06/08 04:08:31;;;;;;;;;25.00;22.00;;;;;16.84;78.80;101413.38;5078360;27;45324;-68
2023/06/08 04:10:58;;;;;;;;;29.33;24.33;;;;;16.81;77.92;101410.84;5078479;27;45379;-68
2023/06/08 04:13:23;;;;;;;;;26.67;24.33;;;;;16.83;77.72;101425.81;5077474;28;46866;-68
2023/06/08 04:15:49;;;;;;;;;29.67;23.00;;;;;16.81;77.52;101425.00;5078061;27;45256;-68
2023/06/08 04:18:14;;;;;;;;;31.00;26.67;;;;;16.86;78.37;101424.81;5078184;27;45360;-68
2023/06/08 04:20:40;;;;;;;;;32.00;27.00;;;;;16.86;77.16;101427.47;5078307;27;45215;-68
2023/06/08 04:23:05;;;;;;;;;28.33;22.33;;;;;16.91;77.16;101425.53;5077973;27;46323;-68
2023/06/08 04:25:31;;;;;;;;;23.33;22.00;;;;;16.86;76.69;101408.84;5078110;27;45257;-68
2023/06/08 04:27:56;;;;;;;;;27.67;26.67;;;;;16.92;77.39;101419.31;5077882;27;45436;-68
2023/06/08 04:30:22;;;;;;;;;30.33;23.67;;;;;16.90;77.82;101417.63;5077520;27;45335;-68
2023/06/08 04:32:47;;;;;;;;;29.67;26.33;;;;;16.99;78.02;101430.56;5077975;27;46575;-68
2023/06/08 04:35:12;;;;;;;;;26.67;22.67;;;;;17.00;75.97;101425.19;5077743;27;45537;-69
2023/06/08 04:37:38;;;;;;;;;34.33;28.67;;;;;17.00;76.52;101419.84;5077960;28;45280;-68
2023/06/08 04:40:04;;;;;;;;;34.00;30.33;;;;;16.97;76.42;101425.31;5078144;27;45353;-68
2023/06/08 04:42:32;;;;;;;;;32.00;24.33;;;;;17.01;77.17;101426.06;5077047;27;47051;-68
2023/06/08 04:44:59;;;;;;;;;28.00;26.33;;;;;17.05;77.34;101425.88;5077427;27;45516;-68
2023/06/08 04:47:29;;;;;;;;;36.00;28.33;;;;;17.02;76.29;101411.81;5077434;27;45389;-68
2023/06/08 04:49:55;;;;;;;;;35.67;29.33;;;;;17.08;77.78;101416.03;5077886;27;45335;-68
2023/06/08 04:52:20;;;;;;;;;36.67;32.00;;;;;17.16;77.06;101428.09;4993431;27;2427198;-68
2023/06/08 04:54:52;;;;;;;;;27.00;24.00;;;;;17.19;77.22;101428.00;5077580;28;45446;-68
2023/06/08 04:57:19;;;;;;;;;39.33;27.00;;;;;17.20;76.10;101429.72;5077471;27;45471;-69
2023/06/08 04:59:45;;;;;;;;;24.00;22.33;;;;;17.21;75.07;101438.59;5077705;27;45301;-69
2023/06/08 05:02:10;;;;;;;;;33.00;29.67;;;;;17.19;75.33;101445.75;5076877;27;46227;-68
2023/06/08 05:04:36;;;;;;;;;33.67;32.33;;;;;17.21;77.00;101438.59;5077629;27;45318;-68
2023/06/08 05:07:01;;;;;;;;;35.00;28.67;;;;;17.15;75.53;101422.84;5077322;27;45502;-69
2023/06/08 05:09:26;;;;;;;;;28.33;24.00;;;;;17.27;76.18;101442.78;5077817;27;45350;-68
2023/06/08 05:11:52;;;;;;;;;30.00;30.00;;;;;17.31;75.07;101449.72;5077325;27;46470;-69
2023/06/08 05:14:17;;;;;;;;;29.00;25.00;;;;;17.28;73.88;101439.19;5075811;28;45374;-68
2023/06/08 05:16:42;;;;;;;;;38.67;30.33;;;;;17.24;74.65;101435.81;5077527;27;45815;-68
2023/06/08 05:19:08;;;;;;;;;33.00;25.67;;;;;17.32;74.53;101444.34;5077601;27;45485;-68
2023/06/08 05:21:36;;;;;;;;;30.33;24.33;;;;;17.42;73.81;101439.53;5076821;27;46278;-68
2023/06/08 05:24:02;;;;;;;;;28.00;25.00;;;;;17.42;73.54;101433.34;5077443;27;45251;-68
2023/06/08 05:26:27;;;;;;;;;35.33;28.00;;;;;17.46;73.92;101434.94;5077290;28;45244;-68
2023/06/08 05:28:52;;;;;;;;;35.00;30.00;;;;;17.46;73.13;101427.81;5076929;27;45407;-68
2023/06/08 05:31:18;;;;;;;;;29.67;27.00;;;;;17.56;72.72;101439.81;5077000;27;46725;-68
2023/06/08 05:33:43;;;;;;;;;26.33;24.33;;;;;17.53;73.45;101423.13;5081079;27;45497;-68
2023/06/08 05:36:08;;;;;;;;;32.67;28.33;;;;;17.52;72.16;101416.06;5077201;27;45378;-68
2023/06/08 05:38:34;;;;;;;;;29.67;26.33;;;;;17.58;72.28;101421.13;5077371;27;45510;-69
2023/06/08 05:40:59;;;;;;;;;39.67;28.67;;;;;17.64;71.93;101426.19;5075195;28;45918;-68
2023/06/08 05:43:25;;;;;;;;;39.00;31.00;;;;;17.68;72.54;101429.59;5076180;27;45330;-68
2023/06/08 05:45:50;;;;;;;;;28.67;21.00;;;;;17.75;72.24;101433.75;5076670;27;45502;-68
2023/06/08 05:48:16;;;;;;;;;30.00;23.67;;;;;17.73;71.94;101416.94;5075645;27;45421;-69
2023/06/08 05:50:41;;;;;;;;;34.33;24.33;;;;;17.75;71.96;101425.75;5076656;27;45573;-68
2023/06/08 05:53:06;;;;;;;;;24.33;20.33;;;;;17.76;71.58;101419.47;5076920;27;45296;-68
2023/06/08 05:55:32;;;;;;;;;32.67;29.00;;;;;17.74;72.47;101414.22;5078455;27;45345;-68
2023/06/08 05:57:57;;;;;;;;;33.00;28.33;;;;;17.75;70.67;101418.63;5080363;27;45453;-68
2023/06/08 06:00:23;;;;;;;;;39.67;30.00;;;;;17.83;71.67;101417.44;5080143;27;46483;-68
2023/06/08 06:02:48;;;;;;;;;31.33;28.33;;;;;17.92;71.33;101417.94;5080946;27;45382;-68
2023/06/08 06:05:13;;;;;;;;;27.00;22.67;;;;;17.99;70.74;101415.00;5080037;27;45217;-69
2023/06/08 06:07:39;;;;;;;;;28.67;28.33;;;;;18.06;70.94;101419.13;5079875;27;45851;-69
2023/06/08 06:10:05;;;;;;;;;36.33;25.00;;;;;18.15;70.64;101418.72;5079918;27;46587;-69
2023/06/08 06:12:31;;;;;;;;;30.33;26.00;;;;;18.13;70.57;101411.75;5079209;27;45811;-69
2023/06/08 06:14:56;;;;;;;;;40.00;27.33;;;;;18.11;69.82;101411.81;5096907;27;45543;-69
2023/06/08 06:17:22;;;;;;;;;30.67;27.00;;;;;18.21;70.24;101418.47;5097333;27;45355;-69
2023/06/08 06:19:48;;;;;;;;;31.67;25.33;;;;;18.26;69.87;101404.94;5079291;27;46335;-71
2023/06/08 06:22:13;;;;;;;;;33.67;25.33;;;;;18.35;70.00;101411.66;5079937;27;45572;-74
2023/06/08 06:24:39;;;;;;;;;28.67;27.00;;;;;18.35;69.36;101404.53;5080069;27;45296;-74
2023/06/08 06:27:05;;;;;;;;;29.00;27.67;;;;;18.48;69.39;101414.66;5080072;27;45471;-72
2023/06/08 06:29:30;;;;;;;;;29.00;24.00;;;;;18.49;69.00;101408.34;5079581;27;45457;-69
2023/06/08 06:31:56;;;;;;;;;46.33;37.00;;;;;18.56;69.57;101417.81;5079745;28;45319;-70
2023/06/08 06:34:21;;;;;;;;;31.33;30.00;;;;;18.59;68.68;101413.22;5079086;27;45309;-69
2023/06/08 06:36:47;;;;;;;;;35.00;27.00;;;;;18.62;68.85;101414.88;5080224;27;45444;-69
2023/06/08 06:39:13;;;;;;;;;28.00;24.00;;;;;18.64;68.73;101406.81;5087807;27;46397;-69
2023/06/08 06:41:39;;;;;;;;;32.67;27.00;;;;;18.66;68.42;101402.25;5080338;27;45460;-70
2023/06/08 06:44:04;;;;;;;;;32.33;27.33;;;;;18.74;68.60;101413.44;5095164;27;45637;-69
2023/06/08 06:46:30;;;;;;;;;31.00;28.33;;;;;18.73;67.73;101395.69;5079357;28;45549;-70
2023/06/08 06:48:55;;;;;;;;;31.33;25.00;;;;;18.83;67.63;101404.16;5079031;27;47079;-71
2023/06/08 06:51:21;;;;;;;;;30.67;25.67;;;;;18.88;67.98;101402.16;5079362;27;45488;-70
2023/06/08 06:53:46;;;;;;;;;33.67;30.33;;;;;18.88;68.83;101386.13;5079776;27;46575;-71
2023/06/08 06:56:13;;;;;;;;;28.33;24.33;;;;;19.00;67.69;101384.72;5079669;27;45383;-70
2023/06/08 06:58:44;;;;;;;;;32.33;27.00;;;;;19.13;67.63;101401.88;5080446;27;46392;-70
2023/06/08 07:01:13;;;;;;;;;28.67;25.67;;;;;19.09;67.16;101382.44;5079263;27;45482;-70
2023/06/08 07:03:42;;;;;;;;;37.67;29.33;;;;;19.23;66.55;101402.28;5079252;27;45431;-70
2023/06/08 07:06:08;;;;;;;;;36.00;30.33;;;;;19.27;66.89;101396.72;5079004;27;45260;-70
2023/06/08 07:08:34;;;;;;;;;32.00;28.67;;;;;19.36;66.69;101406.09;5078666;27;45351;-71
2023/06/08 07:11:01;;;;;;;;;33.67;31.33;;;;;19.45;66.80;101402.94;5078467;27;45937;-70
2023/06/08 07:13:27;;;;;;;;;38.33;31.67;;;;;19.54;65.97;101387.41;5078891;27;45281;-70
2023/06/08 07:15:52;;;;;;;;;45.67;36.00;;;;;19.81;64.90;101383.38;5079117;27;45299;-70
2023/06/08 07:18:18;;;;;;;;;41.67;33.67;;;;;21.12;63.32;101394.19;5078825;27;46617;-69
2023/06/08 07:20:43;;;;;;;;;31.00;25.33;;;;;22.26;57.42;101397.34;5078712;27;45504;-67
2023/06/08 07:23:08;;;;;;;;;32.67;27.67;;;;;22.12;57.95;101389.28;5080721;27;45755;-70
2023/06/08 07:25:34;;;;;;;;;28.00;27.00;;;;;21.65;58.03;101367.94;5079790;27;45442;-70
2023/06/08 07:27:59;;;;;;;;;33.00;27.33;;;;;21.62;58.08;101394.91;5078252;27;46870;-68
2023/06/08 07:30:26;;;;;;;;;31.33;28.67;;;;;21.80;58.05;101401.03;5078582;27;45490;-70
2023/06/08 07:32:51;;;;;;;;;32.33;25.67;;;;;21.61;58.20;101406.63;5078631;27;45914;-70
2023/06/08 07:35:17;;;;;;;;;28.67;27.33;;;;;21.55;58.56;101402.47;5097183;27;45468;-70
2023/06/08 07:37:42;;;;;;;;;38.67;30.00;;;;;21.51;58.85;101398.25;5083293;27;46439;-71
2023/06/08 07:40:08;;;;;;;;;29.33;25.33;;;;;21.37;59.62;101390.09;5089967;27;45514;-71
2023/06/08 07:42:34;;;;;;;;;35.67;28.33;;;;;21.25;59.69;101391.69;5089549;27;45460;-70
2023/06/08 07:45:00;;;;;;;;;37.33;29.00;;;;;21.13;59.79;101395.06;5096515;27;45291;-71
2023/06/08 07:47:25;;;;;;;;;20.33;20.33;;;;;21.10;60.42;101396.13;5078251;27;45465;-71
2023/06/08 07:49:50;;;;;;;;;36.00;27.33;;;;;21.00;60.82;101378.81;5078288;27;45307;-71
2023/06/08 07:52:16;;;;;;;;;35.33;30.33;;;;;21.07;60.51;101395.41;5078314;27;45225;-71
2023/06/08 07:54:41;;;;;;;;;30.00;25.33;;;;;21.11;60.84;101395.13;5078568;27;45297;-72
2023/06/08 07:57:06;;;;;;;;;30.00;27.00;;;;;21.13;61.26;101387.00;5085671;27;46686;-69
2023/06/08 07:59:32;;;;;;;;;30.33;30.33;;;;;21.21;59.86;101379.41;5083479;27;45355;-69
2023/06/08 08:01:57;;;;;;;;;25.33;24.33;;;;;21.21;60.37;101382.94;5078283;27;45227;-69
2023/06/08 08:04:23;;;;;;;;;33.33;29.00;;;;;21.26;60.08;101380.03;5078308;27;45526;-69
2023/06/08 08:06:48;;;;;;;;;29.67;28.67;;;;;21.31;60.81;101391.31;5078170;27;46413;-69
2023/06/08 08:09:13;;;;;;;;;31.67;27.67;;;;;21.31;60.00;101377.06;5078063;27;45356;-69
2023/06/08 08:11:39;;;;;;;;;34.33;32.33;;;;;21.27;60.04;101362.97;5080777;27;45438;-69
2023/06/08 08:14:09;;;;;;;;;34.33;30.00;;;;;21.42;59.90;101369.28;5090630;27;45491;-67
2023/06/08 08:16:37;;;;;;;;;28.67;24.33;;;;;21.46;59.52;101378.84;5078079;27;46129;-69
2023/06/08 08:19:03;;;;;;;;;31.00;26.33;;;;;21.41;58.72;101364.88;5077577;27;45214;-69
2023/06/08 08:21:28;;;;;;;;;29.00;26.00;;;;;21.47;59.29;101369.88;5078120;27;45501;-69
2023/06/08 08:23:53;;;;;;;;;40.00;29.50;;;;;21.49;59.54;101367.97;5078361;27;45350;-69
2023/06/08 08:26:20;;;;;;;;;36.00;31.33;;;;;21.61;59.52;101381.59;5077993;27;46537;-69
2023/06/08 08:28:46;;;;;;;;;39.67;29.67;;;;;22.09;58.71;101375.13;5077668;28;45724;-69
2023/06/08 08:31:11;;;;;;;;;32.00;28.33;;;;;22.69;55.85;101361.63;5077862;27;45346;-69
2023/06/08 08:33:37;;;;;;;;;32.00;27.33;;;;;22.94;55.29;101374.31;5078243;27;45400;-68
2023/06/08 08:36:02;;;;;;;;;27.00;22.33;;;;;22.76;55.60;101365.66;5077788;27;46247;-67
2023/06/08 08:38:28;;;;;;;;;41.33;32.67;;;;;22.67;56.03;101366.22;5077914;27;45339;-69
2023/06/08 08:41:01;;;;;;;;;35.67;28.00;;;;;22.61;56.71;101356.72;5077945;27;45288;-69
2023/06/08 08:43:37;;;;;;;;;31.67;30.33;;;;;22.69;56.37;101383.97;5078024;27;45327;-67
2023/06/08 08:46:06;;;;;;;;;31.67;29.67;;;;;22.87;55.72;101375.69;5077330;27;46642;-69
2023/06/08 08:48:35;;;;;;;;;36.33;31.33;;;;;23.05;55.29;101365.56;5077755;27;45220;-69
2023/06/08 08:51:01;;;;;;;;;36.33;31.33;;;;;23.04;55.02;101361.16;5077598;28;45500;-69
2023/06/08 08:53:30;;;;;;;;;35.00;32.00;;;;;22.94;55.85;101359.06;5077906;27;45517;-69
2023/06/08 08:55:57;;;;;;;;;33.33;30.67;;;;;22.91;55.01;101363.78;5076166;28;47338;-69
2023/06/08 08:58:23;;;;;;;;;32.67;25.33;;;;;22.84;56.07;101344.50;5077465;27;45448;-66
2023/06/08 09:00:48;;;;;;;;;33.67;26.33;;;;;23.04;55.18;101358.47;5077479;27;45322;-66
2023/06/08 09:03:18;;;;;;;;;37.00;30.67;;;;;23.00;54.74;101356.94;5077746;27;45408;-69
2023/06/08 09:05:44;;;;;;;;;36.00;31.67;;;;;22.99;55.30;101358.78;5076164;28;46478;-66
2023/06/08 09:08:10;;;;;;;;;36.67;31.33;;;;;22.94;55.10;101353.69;5077378;28;45227;-67
2023/06/08 09:10:36;;;;;;;;;31.00;25.67;;;;;22.99;55.40;101355.22;5077526;27;45478;-68
2023/06/08 09:13:02;;;;;;;;;34.33;30.67;;;;;23.07;55.15;101342.16;5077792;27;45294;-68
2023/06/08 09:15:31;;;;;;;;;41.33;31.00;;;;;23.76;54.50;101360.84;5077067;27;45422;-69
2023/06/08 09:18:02;;;;;;;;;38.33;33.67;;;;;24.01;53.76;101353.78;5077366;27;45308;-69
2023/06/08 09:20:31;;;;;;;;;36.00;29.33;;;;;24.05;52.62;101358.00;5077389;27;45382;-66
2023/06/08 09:22:57;;;;;;;;;36.33;31.00;;;;;23.97;52.21;101343.25;5077357;27;45586;-69
2023/06/08 09:25:36;;;;;;;;;39.67;30.33;;;;;23.97;53.14;101345.09;5076952;27;47068;-69
2023/06/08 09:28:28;;;;;;;;;43.33;36.00;;;;;23.97;53.38;101356.69;5076973;27;45464;-69
2023/06/08 09:30:57;;;;;;;;;31.33;27.00;;;;;23.98;52.69;101349.50;5079148;27;45414;-69
2023/06/08 09:33:27;;;;;;;;;43.67;32.00;;;;;24.16;52.64;101344.66;5081034;27;45514;-69
2023/06/08 09:35:59;;;;;;;;;35.00;29.33;;;;;24.64;52.18;101344.81;5080578;27;45320;-69
2023/06/08 09:38:26;;;;;;;;;38.67;32.33;;;;;25.10;50.38;101345.09;5080458;27;45385;-69
2023/06/08 09:41:17;;;;;;;;;33.33;28.33;;;;;26.30;50.92;101332.31;5080643;27;45439;-66
2023/06/08 09:43:46;;;;;;;;;44.33;35.00;;;;;28.29;47.80;101340.88;5079512;28;45521;-69
2023/06/08 09:46:16;;;;;;;;;32.00;30.33;;;;;30.21;43.06;101339.56;5080177;27;46310;-69
2023/06/08 09:48:56;;;;;;;;;33.00;30.00;;;;;32.14;41.36;101327.47;5080325;27;45230;-66
2023/06/08 09:51:23;;;;;;;;;32.67;27.00;;;;;33.76;37.27;101323.56;5080560;27;45525;-66
2023/06/08 09:53:54;;;;;;;;;31.33;28.00;;;;;35.16;35.15;101342.06;5080683;27;45570;-67
2023/06/08 09:56:22;;;;;;;;;29.67;26.00;;;;;36.32;36.47;101333.63;5080141;27;46338;-67
2023/06/08 09:58:51;;;;;;;;;43.75;37.00;;;;;37.12;32.18;101331.78;5080446;27;45569;-67
2023/06/08 10:01:38;;;;;;;;;30.00;28.67;;;;;37.98;30.70;101331.66;5080240;27;45469;-66
2023/06/08 10:04:31;;;;;;;;;32.00;28.50;;;;;39.15;30.75;101333.63;5080268;27;45335;-67
2023/06/08 10:07:02;;;;;;;;;39.25;32.25;;;;;40.31;29.57;101323.06;5079991;28;45419;-67
2023/06/08 10:09:29;;;;;;;;;35.00;29.00;;;;;40.83;26.46;101295.41;5079993;27;45474;-67
2023/06/08 10:11:56;;;;;;;;;24.00;22.00;;;;;41.54;27.68;101327.41;5080046;27;45496;-68
2023/06/08 10:14:24;;;;;;;;;32.00;29.00;;;;;42.02;25.48;101323.09;5078615;28;45587;-68
2023/06/08 10:16:49;;;;;;;;;30.50;26.75;;;;;42.45;24.72;101318.50;5079861;27;45363;-68
2023/06/08 10:19:17;;;;;;;;;31.50;28.75;;;;;42.82;25.27;101323.13;5080022;27;45393;-68
2023/06/08 10:21:43;;;;;;;;;23.75;21.50;;;;;43.11;24.60;101319.50;5079977;27;45383;-68
2023/06/08 10:24:10;;;;;;;;;34.00;29.75;;;;;43.35;22.76;101316.72;5080167;27;45591;-68
2023/06/08 10:26:36;;;;;;;;;27.25;27.00;;;;;43.39;24.69;101309.63;5079497;27;46373;-68
2023/06/08 10:29:08;;;;;;;;;30.75;29.00;;;;;43.48;22.70;101311.00;5079614;28;45179;-68
2023/06/08 10:31:37;;;;;;;;;25.00;23.25;;;;;43.57;24.40;101317.03;5079819;27;45397;-68
2023/06/08 10:34:07;;;;;;;;;30.50;28.50;;;;;43.35;22.62;101307.56;5080002;27;45336;-68
2023/06/08 10:36:39;;;;;;;;;25.75;24.50;;;;;43.31;23.76;101288.66;5079485;27;45347;-68
2023/06/08 10:39:07;;;;;;;;;23.00;23.00;;;;;43.56;22.90;101292.31;5079447;27;45344;-68
2023/06/08 10:41:36;;;;;;;;;29.50;25.50;;;;;43.60;22.75;101283.25;5079487;27;45409;-68
2023/06/08 10:44:02;;;;;;;;;24.25;24.25;;;;;43.72;22.35;101279.59;5079839;27;45228;-68
2023/06/08 10:46:40;;;;;;;;;26.50;23.25;;;;;43.63;23.06;101290.22;5079410;27;45419;-68
2023/06/08 10:49:05;;;;;;;;;23.75;22.25;;;;;43.54;21.39;101275.03;5079687;27;45347;-68
2023/06/08 10:51:42;;;;;;;;;26.00;26.00;;;;;43.12;22.05;101267.66;5079428;27;45288;-68
2023/06/08 10:54:09;;;;;;;;;25.00;23.75;;;;;42.97;22.35;101277.25;5079711;27;45424;-68
2023/06/08 10:56:46;;;;;;;;;23.00;22.00;;;;;42.70;23.14;101276.00;5079300;27;46533;-68
2023/06/08 10:59:11;;;;;;;;;23.50;20.50;;;;;42.24;22.59;101264.50;5079564;27;45262;-68
2023/06/08 11:01:37;;;;;;;;;20.00;19.25;;;;;41.64;22.81;101265.19;5079237;28;45414;-68
2023/06/08 11:04:05;;;;;;;;;22.25;21.50;;;;;40.75;23.95;101255.09;5079461;27;45204;-68
2023/06/08 11:06:33;;;;;;;;;21.75;19.50;;;;;39.83;24.14;101264.44;5079147;28;46385;-68
2023/06/08 11:08:59;;;;;;;;;28.50;26.75;;;;;38.75;24.75;101256.44;5079022;27;45422;-68
2023/06/08 11:11:25;;;;;;;;;30.25;26.75;;;;;37.66;25.49;101234.19;5079350;27;45443;-68